createdAt,value
2022-12-07T00:01:42.670Z,36.43
2022-12-07T00:04:11.304Z,35.20
2022-12-07T00:06:39.435Z,37.40
2022-12-07T00:09:07.241Z,40.33
2022-12-07T00:11:34.542Z,35.03
2022-12-07T00:14:02.320Z,40.67
2022-12-07T00:16:30.862Z,46.10
2022-12-07T00:18:59.712Z,41.30
2022-12-07T00:21:27.632Z,37.77
2022-12-07T00:23:55.397Z,46.67
2022-12-07T00:26:23.485Z,38.67
2022-12-07T00:28:51.759Z,44.53
2022-12-07T00:31:19.957Z,48.93
2022-12-07T00:33:47.372Z,39.07
2022-12-07T00:36:16.787Z,41.97
2022-12-07T00:38:43.966Z,43.83
2022-12-07T00:41:12.438Z,46.73
2022-12-07T00:43:39.723Z,39.73
2022-12-07T00:46:06.852Z,42.50
2022-12-07T00:48:34.011Z,43.60
2022-12-07T00:51:01.477Z,43.93
2022-12-07T00:53:30.212Z,42.60
2022-12-07T00:55:57.309Z,45.83
2022-12-07T00:58:24.668Z,40.53
2022-12-07T01:00:51.807Z,38.30
2022-12-07T01:03:19.040Z,36.30
2022-12-07T01:05:52.879Z,40.60
2022-12-07T01:08:20.135Z,43.13
2022-12-07T01:10:49.086Z,38.40
2022-12-07T01:13:16.395Z,44.87
2022-12-07T01:15:44.389Z,41.37
2022-12-07T01:18:11.530Z,47.83
2022-12-07T01:20:38.689Z,38.10
2022-12-07T01:23:05.793Z,40.13
2022-12-07T01:25:32.886Z,37.87
2022-12-07T01:28:01.356Z,41.43
2022-12-07T01:30:28.490Z,39.47
2022-12-07T01:32:56.745Z,41.90
2022-12-07T01:35:23.840Z,37.33
2022-12-07T01:37:50.921Z,42.07
2022-12-07T01:40:18.038Z,40.00
2022-12-07T01:42:45.123Z,40.27
2022-12-07T01:45:45.565Z,39.03
2022-12-07T01:48:16.457Z,48.23
2022-12-07T01:50:44.716Z,47.10
2022-12-07T01:53:12.272Z,46.23
2022-12-07T01:55:41.830Z,40.77
2022-12-07T01:58:09.101Z,42.10
2022-12-07T02:00:36.284Z,43.50
2022-12-07T02:03:06.221Z,41.80
2022-12-07T02:05:35.357Z,44.17
2022-12-07T02:08:02.881Z,38.23
2022-12-07T02:10:31.301Z,37.20
2022-12-07T02:12:59.825Z,38.13
2022-12-07T02:15:28.973Z,47.03
2022-12-07T02:18:01.768Z,44.53
2022-12-07T02:20:31.630Z,48.13
2022-12-07T02:23:17.243Z,41.63
2022-12-07T02:25:56.627Z,49.60
2022-12-07T02:28:27.813Z,44.40
2022-12-07T02:30:57.402Z,43.73
2022-12-07T02:33:27.655Z,42.90
2022-12-07T02:35:58.368Z,49.10
2022-12-07T02:38:27.975Z,50.57
2022-12-07T02:40:55.927Z,49.73
2022-12-07T02:43:25.720Z,37.50
2022-12-07T02:45:53.749Z,46.67
2022-12-07T02:48:22.454Z,43.17
2022-12-07T02:50:50.388Z,45.77
2022-12-07T02:53:30.303Z,39.40
2022-12-07T02:55:57.470Z,39.80
2022-12-07T02:58:30.116Z,42.20
2022-12-07T03:01:04.819Z,44.80
2022-12-07T03:03:34.238Z,47.73
2022-12-07T03:06:06.080Z,36.20
2022-12-07T03:08:38.403Z,41.27
2022-12-07T03:11:06.826Z,39.27
2022-12-07T03:13:37.764Z,36.97
2022-12-07T03:16:10.197Z,41.00
2022-12-07T03:18:40.204Z,41.63
2022-12-07T03:21:10.148Z,38.63
2022-12-07T03:23:38.815Z,36.30
2022-12-07T03:26:06.309Z,45.93
2022-12-07T03:28:34.832Z,32.07
2022-12-07T03:31:04.400Z,33.40
2022-12-07T03:33:34.332Z,38.97
2022-12-07T03:36:06.327Z,32.97
2022-12-07T03:38:35.636Z,41.80
2022-12-07T03:41:07.473Z,32.80
2022-12-07T03:43:34.869Z,31.27
2022-12-07T03:46:03.777Z,36.43
2022-12-07T03:48:34.935Z,35.50
2022-12-07T03:51:08.404Z,33.20
2022-12-07T03:53:37.648Z,34.30
2022-12-07T03:56:05.322Z,31.77
2022-12-07T03:58:33.262Z,32.77
2022-12-07T04:01:00.590Z,32.13
2022-12-07T04:03:27.786Z,33.50
2022-12-07T04:05:55.146Z,38.67
2022-12-07T04:08:23.660Z,30.63
2022-12-07T04:10:50.790Z,33.90
2022-12-07T04:13:17.892Z,34.23
2022-12-07T04:15:45.052Z,34.33
2022-12-07T04:18:12.221Z,29.80
2022-12-07T04:20:39.389Z,38.33
2022-12-07T04:23:06.511Z,32.27
2022-12-07T04:25:34.983Z,34.37
2022-12-07T04:28:02.073Z,29.77
2022-12-07T04:30:29.214Z,38.63
2022-12-07T04:32:56.341Z,34.23
2022-12-07T04:35:23.449Z,42.10
2022-12-07T04:37:50.526Z,37.70
2022-12-07T04:40:17.669Z,31.83
2022-12-07T04:42:46.146Z,35.40
2022-12-07T04:45:13.250Z,31.43
2022-12-07T04:47:40.312Z,35.37
2022-12-07T04:50:07.984Z,29.60
2022-12-07T04:52:35.044Z,31.33
2022-12-07T04:55:02.123Z,34.03
2022-12-07T04:57:29.220Z,27.50
2022-12-07T04:59:57.636Z,28.90
2022-12-07T05:02:24.839Z,32.20
2022-12-07T05:04:52.018Z,31.87
2022-12-07T05:07:19.104Z,28.20
2022-12-07T05:09:46.180Z,34.07
2022-12-07T05:12:13.275Z,31.50
2022-12-07T05:14:40.351Z,34.70
2022-12-07T05:17:08.783Z,28.50
2022-12-07T05:19:35.902Z,29.27
2022-12-07T05:22:03.006Z,27.97
2022-12-07T05:24:30.106Z,27.97
2022-12-07T05:26:57.227Z,28.97
2022-12-07T05:29:24.344Z,28.93
2022-12-07T05:31:51.545Z,33.03
2022-12-07T05:34:20.121Z,27.63
2022-12-07T05:36:47.241Z,24.90
2022-12-07T05:39:14.383Z,31.80
2022-12-07T05:41:41.483Z,33.13
2022-12-07T05:44:08.577Z,24.43
2022-12-07T05:46:35.661Z,26.70
2022-12-07T05:49:02.808Z,29.73
2022-12-07T05:51:31.262Z,23.70
2022-12-07T05:53:58.399Z,29.77
2022-12-07T05:56:25.486Z,36.43
2022-12-07T05:58:52.606Z,31.40
2022-12-07T06:01:19.688Z,30.07
2022-12-07T06:03:46.822Z,23.30
2022-12-07T06:06:13.977Z,22.60
2022-12-07T06:08:42.402Z,26.77
2022-12-07T06:11:09.506Z,27.03
2022-12-07T06:13:36.648Z,22.90
2022-12-07T06:16:03.774Z,25.97
2022-12-07T06:18:30.888Z,22.87
2022-12-07T06:20:58.047Z,23.17
2022-12-07T06:23:25.135Z,25.17
2022-12-07T06:25:53.629Z,27.70
2022-12-07T06:28:20.716Z,21.10
2022-12-07T06:30:47.832Z,23.00
2022-12-07T06:33:14.933Z,22.80
2022-12-07T06:35:42.661Z,26.70
2022-12-07T06:38:09.757Z,24.80
2022-12-07T06:40:36.864Z,24.73
2022-12-07T06:43:05.341Z,25.03
2022-12-07T06:45:32.462Z,27.17
2022-12-07T06:47:59.733Z,27.33
2022-12-07T06:50:27.242Z,28.73
2022-12-07T06:52:54.354Z,25.13
2022-12-07T06:55:21.551Z,26.03
2022-12-07T06:57:48.668Z,26.63
2022-12-07T07:00:22.245Z,21.50
2022-12-07T07:02:49.756Z,30.07
2022-12-07T07:05:16.885Z,26.63
2022-12-07T07:08:05.390Z,28.33
2022-12-07T07:10:31.034Z,21.70
2022-12-07T07:12:58.153Z,22.90
2022-12-07T07:15:26.750Z,30.23
2022-12-07T07:17:53.885Z,29.50
2022-12-07T07:20:21.135Z,32.07
2022-12-07T07:22:48.223Z,30.47
2022-12-07T07:25:15.527Z,25.13
2022-12-07T07:27:42.660Z,24.10
2022-12-07T07:30:10.131Z,27.17
2022-12-07T07:32:38.599Z,31.50
2022-12-07T07:35:06.326Z,28.67
2022-12-07T07:37:33.398Z,25.10
2022-12-07T07:40:00.919Z,25.00
2022-12-07T07:42:28.214Z,25.20
2022-12-07T07:44:55.327Z,24.00
2022-12-07T07:47:22.410Z,25.50
2022-12-07T07:49:50.893Z,25.10
2022-12-07T07:52:17.954Z,19.60
2022-12-07T07:54:45.066Z,24.00
2022-12-07T07:57:12.133Z,25.97
2022-12-07T07:59:39.229Z,21.90
2022-12-07T08:02:06.324Z,28.77
2022-12-07T08:04:33.486Z,26.63
2022-12-07T08:07:02.091Z,26.30
2022-12-07T08:09:29.163Z,20.77
2022-12-07T08:11:56.274Z,22.97
2022-12-07T08:14:23.381Z,28.43
2022-12-07T08:16:50.529Z,24.30
2022-12-07T08:19:17.710Z,24.63
2022-12-07T08:21:44.831Z,28.87
2022-12-07T08:24:13.336Z,21.67
2022-12-07T08:26:40.451Z,24.27
2022-12-07T08:29:07.640Z,22.50
2022-12-07T08:31:34.869Z,25.60
2022-12-07T08:34:02.124Z,30.97
2022-12-07T08:36:29.291Z,27.13
2022-12-07T08:39:29.981Z,24.33
2022-12-07T08:41:44.867Z,21.40
2022-12-07T08:44:11.995Z,23.50
2022-12-07T08:46:41.687Z,21.10
2022-12-07T08:49:11.495Z,17.67
2022-12-07T08:51:38.771Z,17.87
2022-12-07T08:54:08.409Z,15.57
2022-12-07T08:56:36.213Z,20.73
2022-12-07T08:59:05.091Z,18.47
2022-12-07T09:01:32.283Z,13.83
2022-12-07T09:03:59.422Z,17.50
2022-12-07T09:06:26.689Z,14.93
2022-12-07T09:08:55.851Z,18.47
2022-12-07T09:11:28.384Z,15.30
2022-12-07T09:13:56.034Z,20.70
2022-12-07T09:16:24.654Z,18.63
2022-12-07T09:18:51.836Z,21.80
2022-12-07T09:21:18.965Z,18.80
2022-12-07T09:23:46.125Z,20.87
2022-12-07T09:26:13.197Z,16.43
2022-12-07T09:28:40.435Z,16.80
2022-12-07T09:31:24.753Z,20.90
2022-12-07T09:33:56.374Z,18.93
2022-12-07T09:36:23.517Z,14.60
2022-12-07T09:38:50.651Z,14.73
2022-12-07T09:41:17.782Z,14.50
2022-12-07T09:43:45.073Z,12.63
2022-12-07T09:46:14.829Z,17.63
2022-12-07T09:48:43.589Z,17.37
2022-12-07T09:51:22.454Z,18.53
2022-12-07T09:53:50.851Z,15.57
2022-12-07T09:56:19.464Z,16.60
2022-12-07T09:58:47.477Z,24.90
2022-12-07T10:01:15.947Z,19.27
2022-12-07T10:03:46.580Z,19.60
2022-12-07T10:06:15.034Z,28.87
2022-12-07T10:08:42.139Z,14.27
2022-12-07T10:11:09.218Z,20.50
2022-12-07T10:13:37.428Z,13.50
2022-12-07T10:16:07.217Z,14.37
2022-12-07T10:18:35.568Z,16.50
2022-12-07T10:21:04.498Z,20.13
2022-12-07T10:23:33.008Z,14.67
2022-12-07T10:26:00.094Z,14.90
2022-12-07T10:28:40.335Z,14.53
2022-12-07T10:31:17.137Z,13.37
2022-12-07T10:33:50.208Z,18.17
2022-12-07T10:36:19.528Z,12.60
2022-12-07T10:38:49.284Z,12.53
2022-12-07T10:41:16.780Z,16.73
2022-12-07T10:43:51.763Z,16.33
2022-12-07T10:46:42.855Z,20.80
2022-12-07T10:49:17.367Z,15.63
2022-12-07T10:51:48.519Z,16.20
2022-12-07T10:54:22.739Z,17.27
2022-12-07T10:56:57.369Z,15.87
2022-12-07T10:59:39.698Z,13.57
2022-12-07T11:02:21.976Z,14.30
2022-12-07T11:04:55.648Z,14.13
2022-12-07T11:07:29.405Z,16.03
2022-12-07T11:10:08.958Z,11.53
2022-12-07T11:12:46.182Z,15.07
2022-12-07T11:15:17.983Z,14.67
2022-12-07T11:17:49.446Z,20.43
2022-12-07T11:20:24.715Z,14.60
2022-12-07T11:22:53.990Z,18.37
2022-12-07T11:25:29.028Z,19.00
2022-12-07T11:28:04.154Z,18.13
2022-12-07T11:30:35.681Z,10.23
2022-12-07T11:33:08.663Z,10.57
2022-12-07T11:35:39.696Z,11.67
2022-12-07T11:38:11.606Z,10.10
2022-12-07T11:40:41.440Z,8.83
2022-12-07T11:43:12.884Z,16.27
2022-12-07T11:45:42.901Z,13.23
2022-12-07T11:48:14.903Z,14.87
2022-12-07T11:50:44.146Z,10.00
2022-12-07T11:53:15.744Z,12.63
2022-12-07T11:55:47.692Z,12.20
2022-12-07T11:58:38.946Z,11.93
2022-12-07T12:01:10.579Z,11.23
2022-12-07T12:03:39.994Z,14.77
2022-12-07T12:06:07.208Z,12.20
2022-12-07T12:11:31.095Z,19.43
2022-12-07T12:17:14.985Z,12.33
2022-12-07T12:19:43.194Z,14.83
2022-12-07T12:22:14.140Z,16.23
2022-12-07T12:24:42.190Z,16.27
2022-12-07T12:27:11.712Z,17.47
2022-12-07T12:29:40.088Z,16.63
2022-12-07T12:32:09.151Z,19.27
2022-12-07T12:34:45.428Z,14.03
2022-12-07T12:37:35.943Z,10.90
2022-12-07T12:40:21.509Z,15.20
2022-12-07T12:42:50.639Z,13.20
2022-12-07T12:45:22.390Z,10.20
2022-12-07T12:47:58.435Z,14.80
2022-12-07T12:50:29.819Z,13.90
2022-12-07T12:53:14.211Z,11.33
2022-12-07T12:55:56.206Z,11.13
2022-12-07T12:58:30.867Z,15.77
2022-12-07T13:01:16.969Z,12.67
2022-12-07T13:03:53.203Z,10.97
2022-12-07T13:06:21.337Z,9.40
2022-12-07T13:08:48.491Z,9.83
2022-12-07T13:11:20.288Z,9.50
2022-12-07T13:13:48.787Z,8.43
2022-12-07T13:16:38.255Z,10.53
2022-12-07T13:19:20.332Z,11.17
2022-12-07T13:21:47.499Z,8.93
2022-12-07T13:24:14.804Z,9.23
2022-12-07T13:26:43.669Z,7.23
2022-12-07T13:29:14.101Z,14.63
2022-12-07T13:31:42.136Z,9.07
2022-12-07T13:34:24.140Z,10.00
2022-12-07T13:36:51.255Z,10.63
2022-12-07T13:39:20.425Z,5.87
2022-12-07T13:41:50.889Z,10.87
2022-12-07T13:44:19.914Z,6.67
2022-12-07T13:46:51.931Z,6.00
2022-12-07T13:49:20.943Z,8.20
2022-12-07T13:51:48.256Z,14.17
2022-12-07T13:54:15.864Z,9.13
2022-12-07T13:56:43.291Z,16.23
2022-12-07T13:59:14.684Z,9.90
2022-12-07T14:01:43.282Z,6.80
2022-12-07T14:04:34.630Z,9.53
2022-12-07T14:07:02.288Z,9.90
2022-12-07T14:09:30.068Z,6.60
2022-12-07T14:11:57.863Z,7.77
2022-12-07T14:14:30.503Z,5.73
2022-12-07T14:17:04.387Z,6.03
2022-12-07T14:19:55.591Z,12.20
2022-12-07T14:22:27.109Z,8.10
2022-12-07T14:25:00.347Z,14.40
2022-12-07T14:27:32.155Z,16.93
2022-12-07T14:29:59.264Z,11.80
2022-12-07T14:32:29.023Z,9.17
2022-12-07T14:35:10.777Z,10.97
2022-12-07T14:37:38.703Z,8.73
2022-12-07T14:40:06.674Z,8.83
2022-12-07T14:42:34.634Z,13.93
2022-12-07T14:45:02.050Z,16.37
2022-12-07T14:50:18.897Z,9.30
2022-12-07T14:55:35.135Z,13.43
2022-12-07T14:58:02.254Z,9.00
2022-12-07T15:00:29.693Z,9.00
2022-12-07T15:02:58.435Z,11.90
2022-12-07T15:05:25.620Z,15.07
2022-12-07T15:07:52.811Z,9.27
2022-12-07T15:10:24.130Z,12.83
2022-12-07T15:12:51.765Z,21.23
2022-12-07T15:15:18.879Z,9.50
2022-12-07T15:17:46.001Z,12.73
2022-12-07T15:20:15.319Z,10.97
2022-12-07T15:22:42.436Z,9.13
2022-12-07T15:25:10.569Z,14.50
2022-12-07T15:27:37.635Z,14.10
2022-12-07T15:30:04.983Z,13.77
2022-12-07T15:32:32.117Z,14.87
2022-12-07T15:34:59.361Z,14.70
2022-12-07T15:37:27.801Z,17.40
2022-12-07T15:39:54.969Z,16.63
2022-12-07T15:42:22.121Z,13.63
2022-12-07T15:44:49.277Z,13.93
2022-12-07T15:47:16.399Z,15.07
2022-12-07T15:49:44.382Z,19.10
2022-12-07T15:52:11.536Z,14.73
2022-12-07T15:54:39.985Z,16.23
2022-12-07T15:57:07.071Z,12.70
2022-12-07T15:59:34.167Z,17.77
2022-12-07T16:02:01.331Z,11.00
2022-12-07T16:04:28.752Z,10.57
2022-12-07T16:06:55.825Z,10.20
2022-12-07T16:09:22.922Z,9.90
2022-12-07T16:11:51.395Z,13.07
2022-12-07T16:14:18.460Z,12.93
2022-12-07T16:16:45.564Z,11.77
2022-12-07T16:19:12.810Z,8.40
2022-12-07T16:21:40.239Z,7.40
2022-12-07T16:24:08.085Z,9.90
2022-12-07T16:26:35.361Z,13.23
2022-12-07T16:29:03.827Z,12.87
2022-12-07T16:31:30.994Z,13.33
2022-12-07T16:33:59.425Z,11.87
2022-12-07T16:36:55.175Z,12.60
2022-12-07T16:39:13.835Z,18.60
2022-12-07T16:41:40.960Z,16.77
2022-12-07T16:44:11.373Z,16.20
2022-12-07T16:46:38.539Z,16.90
2022-12-07T16:49:06.165Z,13.53
2022-12-07T16:51:33.301Z,19.27
2022-12-07T16:54:00.380Z,15.77
2022-12-07T16:56:27.503Z,16.40
2022-12-07T16:58:54.569Z,17.80
2022-12-07T17:01:23.706Z,12.90
2022-12-07T17:03:51.616Z,19.67
2022-12-07T17:06:19.980Z,18.77
2022-12-07T17:08:47.453Z,15.47
2022-12-07T17:11:15.380Z,21.10
2022-12-07T17:13:42.657Z,19.10
2022-12-07T17:16:09.810Z,19.83
2022-12-07T17:18:38.279Z,16.87
2022-12-07T17:21:06.493Z,18.60
2022-12-07T17:23:34.073Z,19.43
2022-12-07T17:26:05.448Z,22.00
2022-12-07T17:28:32.550Z,18.67
2022-12-07T17:30:59.649Z,22.20
2022-12-07T17:33:26.760Z,16.30
2022-12-07T17:35:55.207Z,19.93
2022-12-07T17:38:22.275Z,21.37
2022-12-07T17:40:49.351Z,25.70
2022-12-07T17:43:16.439Z,26.10
2022-12-07T17:45:43.592Z,29.93
2022-12-07T17:48:10.672Z,23.03
2022-12-07T17:50:39.801Z,26.73
2022-12-07T17:53:09.146Z,24.30
2022-12-07T17:56:10.541Z,31.23
2022-12-07T17:58:23.322Z,24.37
2022-12-07T18:00:50.530Z,20.27
2022-12-07T18:03:17.709Z,13.17
2022-12-07T18:05:44.840Z,17.17
2022-12-07T18:08:13.340Z,18.37
2022-12-07T18:10:40.466Z,17.63
2022-12-07T18:13:07.554Z,21.47
2022-12-07T18:15:34.649Z,29.03
2022-12-07T18:18:01.746Z,23.77
2022-12-07T18:20:28.860Z,26.97
2022-12-07T18:22:55.933Z,31.00
2022-12-07T18:25:24.375Z,28.13
2022-12-07T18:27:51.485Z,25.73
2022-12-07T18:30:18.572Z,30.60
2022-12-07T18:32:45.662Z,31.50
2022-12-07T18:35:12.763Z,30.63
2022-12-07T18:37:41.119Z,28.20
2022-12-07T18:40:08.848Z,32.57
2022-12-07T18:42:37.227Z,32.27
2022-12-07T18:45:04.970Z,30.27
2022-12-07T18:47:32.195Z,38.10
2022-12-07T18:49:59.263Z,35.30
2022-12-07T18:52:26.367Z,35.30
2022-12-07T18:54:53.498Z,35.13
2022-12-07T18:57:20.577Z,33.80
2022-12-07T18:59:49.011Z,37.33
2022-12-07T19:02:16.656Z,33.03
2022-12-07T19:04:43.899Z,35.87
2022-12-07T19:07:11.034Z,35.73
2022-12-07T19:09:38.367Z,32.83
2022-12-07T19:12:05.691Z,39.17
2022-12-07T19:14:33.478Z,35.83
2022-12-07T19:17:03.144Z,38.17
2022-12-07T19:19:31.312Z,39.97
2022-12-07T19:21:58.408Z,36.63
2022-12-07T19:24:25.552Z,35.00
2022-12-07T19:26:52.639Z,35.70
2022-12-07T19:29:19.805Z,37.23
2022-12-07T19:31:46.977Z,45.33
2022-12-07T19:34:16.720Z,36.63
2022-12-07T19:36:44.087Z,31.77
2022-12-07T19:39:14.617Z,39.97
2022-12-07T19:41:42.982Z,38.83
2022-12-07T19:44:11.344Z,42.20
2022-12-07T19:46:38.735Z,45.73
2022-12-07T19:49:05.906Z,40.60
2022-12-07T19:51:34.384Z,42.77
2022-12-07T19:54:02.203Z,44.37
2022-12-07T19:56:29.915Z,40.67
2022-12-07T19:58:59.026Z,37.03
2022-12-07T20:01:26.210Z,36.47
2022-12-07T20:03:53.336Z,39.67
2022-12-07T20:06:20.790Z,42.30
2022-12-07T20:08:49.540Z,39.30
2022-12-07T20:11:17.764Z,43.77
2022-12-07T20:13:44.862Z,44.70
2022-12-07T20:16:19.700Z,37.00
2022-12-07T20:18:51.683Z,41.50
2022-12-07T20:21:23.021Z,43.67
2022-12-07T20:23:51.476Z,41.30
2022-12-07T20:26:18.595Z,45.47
2022-12-07T20:28:45.745Z,49.10
2022-12-07T20:31:13.560Z,51.10
2022-12-07T20:33:40.840Z,40.37
2022-12-07T20:36:08.463Z,42.30
2022-12-07T20:38:35.582Z,44.53
2022-12-07T20:41:05.017Z,42.13
2022-12-07T20:43:32.135Z,42.57
2022-12-07T20:45:59.331Z,42.73
2022-12-07T20:48:26.752Z,46.43
2022-12-07T20:50:54.203Z,41.93
2022-12-07T20:53:21.285Z,44.87
2022-12-07T20:55:48.394Z,50.83
2022-12-07T20:58:16.845Z,40.90
2022-12-07T21:00:43.973Z,39.60
2022-12-07T21:03:11.183Z,42.63
2022-12-07T21:05:38.301Z,40.93
2022-12-07T21:08:05.589Z,45.20
2022-12-07T21:10:32.715Z,44.13
2022-12-07T21:12:59.861Z,49.40
2022-12-07T21:15:28.481Z,41.30
2022-12-07T21:17:55.654Z,48.23
2022-12-07T21:20:22.749Z,39.77
2022-12-07T21:22:49.841Z,48.40
2022-12-07T21:25:16.963Z,42.20
2022-12-07T21:27:44.043Z,45.13
2022-12-07T21:30:11.496Z,41.23
2022-12-07T21:32:39.958Z,47.37
2022-12-07T21:35:07.237Z,53.53
2022-12-07T21:37:34.324Z,41.70
2022-12-07T21:40:01.407Z,47.57
2022-12-07T21:42:28.575Z,47.40
2022-12-07T21:44:55.675Z,46.40
2022-12-07T21:47:22.770Z,46.80
2022-12-07T21:49:51.230Z,43.13
2022-12-07T21:52:18.324Z,46.73
2022-12-07T21:54:45.406Z,45.73
2022-12-07T21:57:12.505Z,43.90
2022-12-07T21:59:39.608Z,41.87
2022-12-07T22:02:06.774Z,41.10
2022-12-07T22:04:33.903Z,42.10
2022-12-07T22:07:02.292Z,36.97
2022-12-07T22:09:29.446Z,40.37
2022-12-07T22:11:56.527Z,40.87
2022-12-07T22:14:23.599Z,38.07
2022-12-07T22:16:50.851Z,42.13
2022-12-07T22:19:17.959Z,42.37
2022-12-07T22:21:45.067Z,53.90
2022-12-07T22:24:13.573Z,39.30
2022-12-07T22:26:41.044Z,39.50
2022-12-07T22:29:08.193Z,38.43
2022-12-07T22:31:35.398Z,39.63
2022-12-07T22:34:02.505Z,45.13
2022-12-07T22:36:29.632Z,38.23
2022-12-07T22:38:57.029Z,35.27
2022-12-07T22:41:26.502Z,36.00
2022-12-07T22:43:53.888Z,38.70
2022-12-07T22:46:21.236Z,43.60
2022-12-07T22:48:48.377Z,38.03
2022-12-07T22:51:20.210Z,39.90
2022-12-07T22:53:47.325Z,38.17
2022-12-07T22:56:14.463Z,37.73
2022-12-07T22:58:42.891Z,43.70
2022-12-07T23:01:10.189Z,41.43
2022-12-07T23:03:37.363Z,37.80
2022-12-07T23:06:06.738Z,44.93
2022-12-07T23:08:33.860Z,42.47
2022-12-07T23:11:00.944Z,43.50
2022-12-07T23:13:28.035Z,41.50
2022-12-07T23:15:56.478Z,40.60
2022-12-07T23:18:23.631Z,37.97
2022-12-07T23:20:50.670Z,39.33
2022-12-07T23:23:17.747Z,34.77
2022-12-07T23:25:44.874Z,34.57
2022-12-07T23:28:11.986Z,31.37
2022-12-07T23:30:39.084Z,38.00
2022-12-07T23:33:07.548Z,36.73
2022-12-07T23:35:34.629Z,40.90
2022-12-07T23:38:01.716Z,32.13
2022-12-07T23:40:28.858Z,38.67
2022-12-07T23:42:55.924Z,39.73
2022-12-07T23:45:23.125Z,31.50
2022-12-07T23:47:50.248Z,32.30
2022-12-07T23:50:18.774Z,34.53
2022-12-07T23:52:46.043Z,34.33
2022-12-07T23:55:13.165Z,30.30
2022-12-07T23:57:40.283Z,35.13
